sensor_id;sensor_type;location;lat;lon;timestamp;P1;durP1;ratioP1;P2;durP2;ratioP2
14847;SDS011;7516;43.570;1.448;2023-01-29T00:01:22;7.43;;;5.10;;
14847;SDS011;7516;43.570;1.448;2023-01-29T00:03:50;7.83;;;6.10;;
14847;SDS011;7516;43.570;1.448;2023-01-29T00:06:17;7.13;;;5.83;;
14847;SDS011;7516;43.570;1.448;2023-01-29T00:08:48;8.57;;;6.63;;
14847;SDS011;7516;43.570;1.448;2023-01-29T00:11:16;7.87;;;6.67;;
14847;SDS011;7516;43.570;1.448;2023-01-29T00:13:44;10.23;;;6.10;;
14847;SDS011;7516;43.570;1.448;2023-01-29T00:16:12;8.63;;;6.37;;
14847;SDS011;7516;43.570;1.448;2023-01-29T00:18:40;7.33;;;5.33;;
14847;SDS011;7516;43.570;1.448;2023-01-29T00:21:08;7.40;;;5.77;;
14847;SDS011;7516;43.570;1.448;2023-01-29T00:23:36;7.60;;;5.73;;
14847;SDS011;7516;43.570;1.448;2023-01-29T00:26:05;9.87;;;6.47;;
14847;SDS011;7516;43.570;1.448;2023-01-29T00:28:33;7.20;;;5.20;;
14847;SDS011;7516;43.570;1.448;2023-01-29T00:31:05;7.57;;;6.00;;
14847;SDS011;7516;43.570;1.448;2023-01-29T00:33:34;8.10;;;5.47;;
14847;SDS011;7516;43.570;1.448;2023-01-29T00:36:02;7.90;;;5.57;;
14847;SDS011;7516;43.570;1.448;2023-01-29T00:38:30;7.43;;;5.60;;
14847;SDS011;7516;43.570;1.448;2023-01-29T00:41:05;7.13;;;5.73;;
14847;SDS011;7516;43.570;1.448;2023-01-29T00:43:50;7.40;;;5.93;;
14847;SDS011;7516;43.570;1.448;2023-01-29T00:46:35;7.60;;;5.30;;
14847;SDS011;7516;43.570;1.448;2023-01-29T00:49:03;7.53;;;5.87;;
14847;SDS011;7516;43.570;1.448;2023-01-29T00:51:31;8.50;;;5.47;;
14847;SDS011;7516;43.570;1.448;2023-01-29T00:53:58;9.57;;;6.53;;
14847;SDS011;7516;43.570;1.448;2023-01-29T00:56:28;8.73;;;6.63;;
14847;SDS011;7516;43.570;1.448;2023-01-29T00:58:56;7.93;;;5.30;;
14847;SDS011;7516;43.570;1.448;2023-01-29T01:01:23;8.40;;;6.30;;
14847;SDS011;7516;43.570;1.448;2023-01-29T01:04:05;8.53;;;6.40;;
14847;SDS011;7516;43.570;1.448;2023-01-29T01:06:35;7.80;;;5.83;;
14847;SDS011;7516;43.570;1.448;2023-01-29T01:09:03;8.33;;;6.23;;
14847;SDS011;7516;43.570;1.448;2023-01-29T01:11:50;9.63;;;6.10;;
14847;SDS011;7516;43.570;1.448;2023-01-29T01:14:18;12.47;;;6.57;;
14847;SDS011;7516;43.570;1.448;2023-01-29T01:16:46;8.90;;;6.20;;
14847;SDS011;7516;43.570;1.448;2023-01-29T01:19:14;6.77;;;5.30;;
14847;SDS011;7516;43.570;1.448;2023-01-29T01:21:42;7.53;;;6.10;;
14847;SDS011;7516;43.570;1.448;2023-01-29T01:24:12;7.87;;;6.10;;
14847;SDS011;7516;43.570;1.448;2023-01-29T01:26:40;8.50;;;6.40;;
14847;SDS011;7516;43.570;1.448;2023-01-29T01:29:09;8.70;;;6.87;;
14847;SDS011;7516;43.570;1.448;2023-01-29T01:31:36;6.60;;;5.50;;
14847;SDS011;7516;43.570;1.448;2023-01-29T01:34:04;8.00;;;6.00;;
14847;SDS011;7516;43.570;1.448;2023-01-29T01:36:31;8.23;;;6.17;;
14847;SDS011;7516;43.570;1.448;2023-01-29T01:38:59;6.17;;;5.07;;
14847;SDS011;7516;43.570;1.448;2023-01-29T01:41:26;7.80;;;5.83;;
14847;SDS011;7516;43.570;1.448;2023-01-29T01:43:57;8.40;;;5.30;;
14847;SDS011;7516;43.570;1.448;2023-01-29T01:46:28;7.50;;;5.13;;
14847;SDS011;7516;43.570;1.448;2023-01-29T01:48:58;7.60;;;5.97;;
14847;SDS011;7516;43.570;1.448;2023-01-29T01:51:31;7.17;;;5.67;;
14847;SDS011;7516;43.570;1.448;2023-01-29T01:54:02;7.43;;;6.03;;
14847;SDS011;7516;43.570;1.448;2023-01-29T01:56:33;7.60;;;5.80;;
14847;SDS011;7516;43.570;1.448;2023-01-29T01:59:06;7.13;;;5.50;;
14847;SDS011;7516;43.570;1.448;2023-01-29T02:01:38;7.97;;;6.10;;
14847;SDS011;7516;43.570;1.448;2023-01-29T02:04:12;7.30;;;5.67;;
14847;SDS011;7516;43.570;1.448;2023-01-29T02:07:00;9.13;;;6.90;;
14847;SDS011;7516;43.570;1.448;2023-01-29T02:09:49;9.20;;;6.80;;
14847;SDS011;7516;43.570;1.448;2023-01-29T02:12:19;9.00;;;5.67;;
14847;SDS011;7516;43.570;1.448;2023-01-29T02:14:47;7.60;;;5.93;;
14847;SDS011;7516;43.570;1.448;2023-01-29T02:17:18;9.33;;;6.10;;
14847;SDS011;7516;43.570;1.448;2023-01-29T02:19:47;8.77;;;6.23;;
14847;SDS011;7516;43.570;1.448;2023-01-29T02:22:26;8.57;;;6.00;;
14847;SDS011;7516;43.570;1.448;2023-01-29T02:25:17;7.10;;;5.43;;
14847;SDS011;7516;43.570;1.448;2023-01-29T02:31:00;8.97;;;6.27;;
14847;SDS011;7516;43.570;1.448;2023-01-29T02:33:38;7.90;;;5.37;;
14847;SDS011;7516;43.570;1.448;2023-01-29T02:36:22;9.07;;;5.93;;
14847;SDS011;7516;43.570;1.448;2023-01-29T02:38:59;6.83;;;5.43;;
14847;SDS011;7516;43.570;1.448;2023-01-29T02:41:34;8.00;;;5.40;;
14847;SDS011;7516;43.570;1.448;2023-01-29T02:44:09;7.53;;;5.13;;
14847;SDS011;7516;43.570;1.448;2023-01-29T02:46:49;9.53;;;6.47;;
14847;SDS011;7516;43.570;1.448;2023-01-29T02:49:23;8.17;;;6.57;;
14847;SDS011;7516;43.570;1.448;2023-01-29T02:51:59;8.20;;;6.30;;
14847;SDS011;7516;43.570;1.448;2023-01-29T02:54:32;8.40;;;6.13;;
14847;SDS011;7516;43.570;1.448;2023-01-29T02:57:08;7.07;;;5.33;;
14847;SDS011;7516;43.570;1.448;2023-01-29T02:59:44;7.43;;;5.80;;
14847;SDS011;7516;43.570;1.448;2023-01-29T03:02:17;8.37;;;6.17;;
14847;SDS011;7516;43.570;1.448;2023-01-29T03:05:00;8.30;;;5.43;;
14847;SDS011;7516;43.570;1.448;2023-01-29T03:07:33;10.30;;;6.60;;
14847;SDS011;7516;43.570;1.448;2023-01-29T03:10:10;8.93;;;6.73;;
14847;SDS011;7516;43.570;1.448;2023-01-29T03:12:42;8.47;;;6.33;;
14847;SDS011;7516;43.570;1.448;2023-01-29T03:15:15;8.00;;;6.20;;
14847;SDS011;7516;43.570;1.448;2023-01-29T03:17:50;7.43;;;6.13;;
14847;SDS011;7516;43.570;1.448;2023-01-29T03:20:23;8.27;;;6.27;;
14847;SDS011;7516;43.570;1.448;2023-01-29T03:22:57;7.73;;;6.10;;
14847;SDS011;7516;43.570;1.448;2023-01-29T03:25:27;8.87;;;6.77;;
14847;SDS011;7516;43.570;1.448;2023-01-29T03:28:14;7.90;;;5.50;;
14847;SDS011;7516;43.570;1.448;2023-01-29T03:31:03;8.17;;;5.50;;
14847;SDS011;7516;43.570;1.448;2023-01-29T03:33:51;8.50;;;6.20;;
14847;SDS011;7516;43.570;1.448;2023-01-29T03:36:26;8.13;;;6.40;;
14847;SDS011;7516;43.570;1.448;2023-01-29T03:39:03;9.17;;;6.97;;
14847;SDS011;7516;43.570;1.448;2023-01-29T03:41:33;8.20;;;6.50;;
14847;SDS011;7516;43.570;1.448;2023-01-29T03:44:07;8.03;;;5.83;;
14847;SDS011;7516;43.570;1.448;2023-01-29T03:46:43;8.47;;;6.27;;
14847;SDS011;7516;43.570;1.448;2023-01-29T03:49:18;7.87;;;5.90;;
14847;SDS011;7516;43.570;1.448;2023-01-29T03:51:53;7.47;;;5.67;;
14847;SDS011;7516;43.570;1.448;2023-01-29T03:54:27;7.63;;;4.93;;
14847;SDS011;7516;43.570;1.448;2023-01-29T03:57:06;6.03;;;4.77;;
14847;SDS011;7516;43.570;1.448;2023-01-29T03:59:41;8.30;;;5.70;;
14847;SDS011;7516;43.570;1.448;2023-01-29T04:02:17;7.03;;;5.13;;
14847;SDS011;7516;43.570;1.448;2023-01-29T04:04:52;6.87;;;5.13;;
14847;SDS011;7516;43.570;1.448;2023-01-29T04:07:23;6.97;;;5.00;;
14847;SDS011;7516;43.570;1.448;2023-01-29T04:09:54;6.70;;;5.13;;
14847;SDS011;7516;43.570;1.448;2023-01-29T04:12:25;9.13;;;5.87;;
14847;SDS011;7516;43.570;1.448;2023-01-29T04:14:56;6.87;;;5.17;;
14847;SDS011;7516;43.570;1.448;2023-01-29T04:17:29;7.60;;;5.43;;
14847;SDS011;7516;43.570;1.448;2023-01-29T04:20:04;6.83;;;5.50;;
14847;SDS011;7516;43.570;1.448;2023-01-29T04:22:33;7.20;;;5.50;;
14847;SDS011;7516;43.570;1.448;2023-01-29T04:25:02;7.50;;;5.53;;
14847;SDS011;7516;43.570;1.448;2023-01-29T04:27:35;7.07;;;5.07;;
14847;SDS011;7516;43.570;1.448;2023-01-29T04:33:04;7.47;;;5.60;;
14847;SDS011;7516;43.570;1.448;2023-01-29T04:35:48;7.50;;;5.60;;
14847;SDS011;7516;43.570;1.448;2023-01-29T04:38:36;7.13;;;5.33;;
14847;SDS011;7516;43.570;1.448;2023-01-29T04:41:15;6.40;;;5.23;;
14847;SDS011;7516;43.570;1.448;2023-01-29T04:43:50;7.83;;;5.13;;
14847;SDS011;7516;43.570;1.448;2023-01-29T04:46:26;7.83;;;5.80;;
14847;SDS011;7516;43.570;1.448;2023-01-29T04:49:07;7.67;;;5.77;;
14847;SDS011;7516;43.570;1.448;2023-01-29T04:51:46;6.63;;;5.03;;
14847;SDS011;7516;43.570;1.448;2023-01-29T04:54:25;6.63;;;5.37;;
14847;SDS011;7516;43.570;1.448;2023-01-29T04:57:03;8.50;;;5.77;;
14847;SDS011;7516;43.570;1.448;2023-01-29T04:59:40;7.00;;;5.60;;
14847;SDS011;7516;43.570;1.448;2023-01-29T05:02:11;7.17;;;5.40;;
14847;SDS011;7516;43.570;1.448;2023-01-29T05:04:40;7.13;;;5.47;;
14847;SDS011;7516;43.570;1.448;2023-01-29T05:07:12;7.07;;;4.87;;
14847;SDS011;7516;43.570;1.448;2023-01-29T05:09:41;8.10;;;6.00;;
14847;SDS011;7516;43.570;1.448;2023-01-29T05:12:11;7.50;;;5.47;;
14847;SDS011;7516;43.570;1.448;2023-01-29T05:14:41;8.43;;;6.20;;
14847;SDS011;7516;43.570;1.448;2023-01-29T05:17:13;8.07;;;5.93;;
14847;SDS011;7516;43.570;1.448;2023-01-29T05:19:44;8.10;;;6.17;;
14847;SDS011;7516;43.570;1.448;2023-01-29T05:22:14;8.33;;;5.37;;
14847;SDS011;7516;43.570;1.448;2023-01-29T05:24:46;8.23;;;5.23;;
14847;SDS011;7516;43.570;1.448;2023-01-29T05:27:16;6.77;;;5.13;;
14847;SDS011;7516;43.570;1.448;2023-01-29T05:30:04;6.83;;;5.30;;
14847;SDS011;7516;43.570;1.448;2023-01-29T05:32:32;8.20;;;5.60;;
14847;SDS011;7516;43.570;1.448;2023-01-29T05:35:01;8.37;;;5.40;;
14847;SDS011;7516;43.570;1.448;2023-01-29T05:37:29;7.33;;;5.23;;
14847;SDS011;7516;43.570;1.448;2023-01-29T05:39:57;6.70;;;5.00;;
14847;SDS011;7516;43.570;1.448;2023-01-29T05:42:24;7.83;;;5.60;;
14847;SDS011;7516;43.570;1.448;2023-01-29T05:44:52;6.70;;;5.57;;
14847;SDS011;7516;43.570;1.448;2023-01-29T05:47:19;7.17;;;5.17;;
14847;SDS011;7516;43.570;1.448;2023-01-29T05:49:47;6.63;;;5.00;;
14847;SDS011;7516;43.570;1.448;2023-01-29T05:52:16;7.67;;;4.97;;
14847;SDS011;7516;43.570;1.448;2023-01-29T05:54:43;7.97;;;5.80;;
14847;SDS011;7516;43.570;1.448;2023-01-29T05:57:11;6.97;;;5.23;;
14847;SDS011;7516;43.570;1.448;2023-01-29T05:59:39;7.07;;;5.27;;
14847;SDS011;7516;43.570;1.448;2023-01-29T06:02:07;6.77;;;5.30;;
14847;SDS011;7516;43.570;1.448;2023-01-29T06:04:34;7.57;;;5.70;;
14847;SDS011;7516;43.570;1.448;2023-01-29T06:07:02;7.03;;;5.50;;
14847;SDS011;7516;43.570;1.448;2023-01-29T06:09:31;6.60;;;5.07;;
14847;SDS011;7516;43.570;1.448;2023-01-29T06:11:58;6.90;;;5.23;;
14847;SDS011;7516;43.570;1.448;2023-01-29T06:14:26;7.90;;;5.73;;
14847;SDS011;7516;43.570;1.448;2023-01-29T06:16:54;6.73;;;5.00;;
14847;SDS011;7516;43.570;1.448;2023-01-29T06:19:21;6.70;;;4.87;;
14847;SDS011;7516;43.570;1.448;2023-01-29T06:21:49;9.37;;;5.70;;
14847;SDS011;7516;43.570;1.448;2023-01-29T06:24:16;6.30;;;5.03;;
14847;SDS011;7516;43.570;1.448;2023-01-29T06:26:45;6.63;;;5.23;;
14847;SDS011;7516;43.570;1.448;2023-01-29T06:29:13;7.27;;;5.27;;
14847;SDS011;7516;43.570;1.448;2023-01-29T06:31:40;6.97;;;5.07;;
14847;SDS011;7516;43.570;1.448;2023-01-29T06:34:08;7.20;;;5.30;;
14847;SDS011;7516;43.570;1.448;2023-01-29T06:36:35;8.47;;;6.27;;
14847;SDS011;7516;43.570;1.448;2023-01-29T06:39:03;8.37;;;6.50;;
14847;SDS011;7516;43.570;1.448;2023-01-29T06:41:30;8.17;;;5.97;;
14847;SDS011;7516;43.570;1.448;2023-01-29T06:43:59;9.20;;;6.50;;
14847;SDS011;7516;43.570;1.448;2023-01-29T06:46:27;8.17;;;5.73;;
14847;SDS011;7516;43.570;1.448;2023-01-29T06:48:56;8.47;;;6.03;;
14847;SDS011;7516;43.570;1.448;2023-01-29T06:51:25;8.23;;;6.33;;
14847;SDS011;7516;43.570;1.448;2023-01-29T06:53:52;8.17;;;5.80;;
14847;SDS011;7516;43.570;1.448;2023-01-29T06:56:20;7.13;;;5.70;;
14847;SDS011;7516;43.570;1.448;2023-01-29T06:58:48;9.53;;;6.07;;
14847;SDS011;7516;43.570;1.448;2023-01-29T07:01:17;8.80;;;6.30;;
14847;SDS011;7516;43.570;1.448;2023-01-29T07:03:47;9.83;;;6.97;;
14847;SDS011;7516;43.570;1.448;2023-01-29T07:06:15;9.97;;;7.27;;
14847;SDS011;7516;43.570;1.448;2023-01-29T07:08:43;8.53;;;6.23;;
14847;SDS011;7516;43.570;1.448;2023-01-29T07:11:11;9.07;;;6.43;;
14847;SDS011;7516;43.570;1.448;2023-01-29T07:13:38;9.23;;;6.43;;
14847;SDS011;7516;43.570;1.448;2023-01-29T07:16:06;8.27;;;5.80;;
14847;SDS011;7516;43.570;1.448;2023-01-29T07:18:36;8.13;;;6.27;;
14847;SDS011;7516;43.570;1.448;2023-01-29T07:21:04;8.13;;;5.83;;
14847;SDS011;7516;43.570;1.448;2023-01-29T07:23:32;8.10;;;5.80;;
14847;SDS011;7516;43.570;1.448;2023-01-29T07:26:00;7.70;;;5.83;;
14847;SDS011;7516;43.570;1.448;2023-01-29T07:28:29;7.70;;;6.10;;
14847;SDS011;7516;43.570;1.448;2023-01-29T07:30:57;7.53;;;5.50;;
14847;SDS011;7516;43.570;1.448;2023-01-29T07:33:25;8.20;;;6.33;;
14847;SDS011;7516;43.570;1.448;2023-01-29T07:35:54;7.00;;;5.40;;
14847;SDS011;7516;43.570;1.448;2023-01-29T07:38:21;9.00;;;6.47;;
14847;SDS011;7516;43.570;1.448;2023-01-29T07:40:50;8.17;;;6.07;;
14847;SDS011;7516;43.570;1.448;2023-01-29T07:43:18;9.23;;;6.17;;
14847;SDS011;7516;43.570;1.448;2023-01-29T07:45:48;8.77;;;6.40;;
14847;SDS011;7516;43.570;1.448;2023-01-29T07:48:16;9.93;;;7.10;;
14847;SDS011;7516;43.570;1.448;2023-01-29T07:50:44;8.83;;;6.00;;
14847;SDS011;7516;43.570;1.448;2023-01-29T07:53:20;8.07;;;6.23;;
14847;SDS011;7516;43.570;1.448;2023-01-29T07:55:48;9.77;;;6.57;;
14847;SDS011;7516;43.570;1.448;2023-01-29T07:58:15;11.37;;;7.50;;
14847;SDS011;7516;43.570;1.448;2023-01-29T08:00:43;9.23;;;7.10;;
14847;SDS011;7516;43.570;1.448;2023-01-29T08:03:11;7.40;;;6.20;;
14847;SDS011;7516;43.570;1.448;2023-01-29T08:05:40;10.70;;;8.50;;
14847;SDS011;7516;43.570;1.448;2023-01-29T08:08:08;9.63;;;6.83;;
14847;SDS011;7516;43.570;1.448;2023-01-29T08:10:38;10.43;;;7.97;;
14847;SDS011;7516;43.570;1.448;2023-01-29T08:13:06;9.37;;;7.13;;
14847;SDS011;7516;43.570;1.448;2023-01-29T08:15:34;9.33;;;6.67;;
14847;SDS011;7516;43.570;1.448;2023-01-29T08:18:03;9.50;;;7.07;;
14847;SDS011;7516;43.570;1.448;2023-01-29T08:20:30;9.70;;;7.00;;
14847;SDS011;7516;43.570;1.448;2023-01-29T08:22:59;8.67;;;6.37;;
14847;SDS011;7516;43.570;1.448;2023-01-29T08:25:27;8.77;;;7.23;;
14847;SDS011;7516;43.570;1.448;2023-01-29T08:27:57;8.30;;;6.37;;
14847;SDS011;7516;43.570;1.448;2023-01-29T08:30:25;8.03;;;6.23;;
14847;SDS011;7516;43.570;1.448;2023-01-29T08:32:54;8.50;;;6.10;;
14847;SDS011;7516;43.570;1.448;2023-01-29T08:35:21;9.13;;;6.80;;
14847;SDS011;7516;43.570;1.448;2023-01-29T08:37:52;8.87;;;6.40;;
14847;SDS011;7516;43.570;1.448;2023-01-29T08:40:20;9.17;;;7.03;;
14847;SDS011;7516;43.570;1.448;2023-01-29T08:42:49;8.67;;;6.70;;
14847;SDS011;7516;43.570;1.448;2023-01-29T08:45:18;8.53;;;6.43;;
14847;SDS011;7516;43.570;1.448;2023-01-29T08:47:45;9.33;;;6.20;;
14847;SDS011;7516;43.570;1.448;2023-01-29T08:50:14;8.90;;;6.57;;
14847;SDS011;7516;43.570;1.448;2023-01-29T08:52:43;8.97;;;6.20;;
14847;SDS011;7516;43.570;1.448;2023-01-29T08:55:11;9.30;;;6.90;;
14847;SDS011;7516;43.570;1.448;2023-01-29T08:57:39;8.20;;;6.43;;
14847;SDS011;7516;43.570;1.448;2023-01-29T09:00:07;9.20;;;7.20;;
14847;SDS011;7516;43.570;1.448;2023-01-29T09:02:37;8.33;;;6.00;;
14847;SDS011;7516;43.570;1.448;2023-01-29T09:05:05;8.27;;;6.63;;
14847;SDS011;7516;43.570;1.448;2023-01-29T09:07:33;9.77;;;7.17;;
14847;SDS011;7516;43.570;1.448;2023-01-29T09:10:00;8.73;;;6.33;;
14847;SDS011;7516;43.570;1.448;2023-01-29T09:12:28;8.07;;;5.97;;
14847;SDS011;7516;43.570;1.448;2023-01-29T09:14:56;8.90;;;6.47;;
14847;SDS011;7516;43.570;1.448;2023-01-29T09:17:23;9.03;;;6.87;;
14847;SDS011;7516;43.570;1.448;2023-01-29T09:19:52;9.03;;;6.63;;
14847;SDS011;7516;43.570;1.448;2023-01-29T09:22:20;9.77;;;6.60;;
14847;SDS011;7516;43.570;1.448;2023-01-29T09:24:47;9.23;;;6.60;;
14847;SDS011;7516;43.570;1.448;2023-01-29T09:27:15;8.10;;;5.93;;
14847;SDS011;7516;43.570;1.448;2023-01-29T09:29:42;8.43;;;6.47;;
14847;SDS011;7516;43.570;1.448;2023-01-29T09:32:10;9.23;;;6.97;;
14847;SDS011;7516;43.570;1.448;2023-01-29T09:34:37;8.57;;;6.90;;
14847;SDS011;7516;43.570;1.448;2023-01-29T09:37:06;8.80;;;6.50;;
14847;SDS011;7516;43.570;1.448;2023-01-29T09:39:34;9.50;;;6.97;;
14847;SDS011;7516;43.570;1.448;2023-01-29T09:42:02;9.30;;;6.77;;
14847;SDS011;7516;43.570;1.448;2023-01-29T09:44:43;12.47;;;7.83;;
14847;SDS011;7516;43.570;1.448;2023-01-29T09:47:18;10.13;;;6.83;;
14847;SDS011;7516;43.570;1.448;2023-01-29T09:49:50;11.70;;;8.20;;
14847;SDS011;7516;43.570;1.448;2023-01-29T09:52:25;11.10;;;7.00;;
14847;SDS011;7516;43.570;1.448;2023-01-29T09:54:56;8.83;;;6.17;;
14847;SDS011;7516;43.570;1.448;2023-01-29T09:57:30;10.17;;;6.90;;
14847;SDS011;7516;43.570;1.448;2023-01-29T10:00:12;9.47;;;6.63;;
14847;SDS011;7516;43.570;1.448;2023-01-29T10:02:51;8.93;;;6.17;;
14847;SDS011;7516;43.570;1.448;2023-01-29T10:05:43;8.63;;;5.87;;
14847;SDS011;7516;43.570;1.448;2023-01-29T10:08:26;8.07;;;5.93;;
14847;SDS011;7516;43.570;1.448;2023-01-29T10:11:12;10.70;;;7.07;;
14847;SDS011;7516;43.570;1.448;2023-01-29T10:13:51;9.37;;;6.07;;
14847;SDS011;7516;43.570;1.448;2023-01-29T10:16:35;8.23;;;5.73;;
14847;SDS011;7516;43.570;1.448;2023-01-29T10:19:17;9.80;;;7.97;;
14847;SDS011;7516;43.570;1.448;2023-01-29T10:22:07;7.93;;;5.90;;
14847;SDS011;7516;43.570;1.448;2023-01-29T10:24:51;8.17;;;5.90;;
14847;SDS011;7516;43.570;1.448;2023-01-29T10:27:24;8.60;;;6.93;;
14847;SDS011;7516;43.570;1.448;2023-01-29T10:29:57;9.07;;;6.67;;
14847;SDS011;7516;43.570;1.448;2023-01-29T10:32:27;8.90;;;6.33;;
14847;SDS011;7516;43.570;1.448;2023-01-29T10:34:57;13.93;;;7.53;;
14847;SDS011;7516;43.570;1.448;2023-01-29T10:37:31;8.53;;;6.30;;
14847;SDS011;7516;43.570;1.448;2023-01-29T10:40:14;8.03;;;5.97;;
14847;SDS011;7516;43.570;1.448;2023-01-29T10:42:45;9.77;;;6.90;;
14847;SDS011;7516;43.570;1.448;2023-01-29T10:45:21;8.30;;;6.27;;
14847;SDS011;7516;43.570;1.448;2023-01-29T10:51:17;10.27;;;5.40;;
14847;SDS011;7516;43.570;1.448;2023-01-29T10:54:00;8.47;;;6.13;;
14847;SDS011;7516;43.570;1.448;2023-01-29T10:56:49;7.40;;;5.27;;
14847;SDS011;7516;43.570;1.448;2023-01-29T10:59:31;9.77;;;7.03;;
14847;SDS011;7516;43.570;1.448;2023-01-29T11:02:14;9.73;;;7.27;;
14847;SDS011;7516;43.570;1.448;2023-01-29T11:04:45;9.50;;;6.67;;
14847;SDS011;7516;43.570;1.448;2023-01-29T11:07:13;10.57;;;7.20;;
14847;SDS011;7516;43.570;1.448;2023-01-29T11:09:45;7.47;;;6.13;;
14847;SDS011;7516;43.570;1.448;2023-01-29T11:12:19;6.93;;;5.50;;
14847;SDS011;7516;43.570;1.448;2023-01-29T11:14:51;8.20;;;6.43;;
14847;SDS011;7516;43.570;1.448;2023-01-29T11:17:23;10.47;;;6.07;;
14847;SDS011;7516;43.570;1.448;2023-01-29T11:19:52;9.70;;;5.90;;
14847;SDS011;7516;43.570;1.448;2023-01-29T11:22:21;8.90;;;6.07;;
14847;SDS011;7516;43.570;1.448;2023-01-29T11:27:37;7.83;;;6.43;;
14847;SDS011;7516;43.570;1.448;2023-01-29T11:30:13;10.67;;;7.30;;
14847;SDS011;7516;43.570;1.448;2023-01-29T11:32:48;7.97;;;6.30;;
14847;SDS011;7516;43.570;1.448;2023-01-29T11:35:21;8.80;;;7.20;;
14847;SDS011;7516;43.570;1.448;2023-01-29T11:37:50;8.13;;;6.10;;
14847;SDS011;7516;43.570;1.448;2023-01-29T11:40:31;7.13;;;6.30;;
14847;SDS011;7516;43.570;1.448;2023-01-29T11:43:16;8.10;;;7.10;;
14847;SDS011;7516;43.570;1.448;2023-01-29T11:45:45;6.40;;;5.43;;
14847;SDS011;7516;43.570;1.448;2023-01-29T11:48:16;8.20;;;6.53;;
14847;SDS011;7516;43.570;1.448;2023-01-29T11:50:49;6.47;;;4.80;;
14847;SDS011;7516;43.570;1.448;2023-01-29T11:53:35;7.63;;;5.23;;
14847;SDS011;7516;43.570;1.448;2023-01-29T11:56:05;6.33;;;5.03;;
14847;SDS011;7516;43.570;1.448;2023-01-29T11:58:47;7.50;;;5.50;;
14847;SDS011;7516;43.570;1.448;2023-01-29T12:01:17;7.67;;;5.80;;
14847;SDS011;7516;43.570;1.448;2023-01-29T12:03:56;8.13;;;6.63;;
14847;SDS011;7516;43.570;1.448;2023-01-29T12:06:27;7.70;;;5.87;;
14847;SDS011;7516;43.570;1.448;2023-01-29T12:09:01;6.37;;;4.87;;
14847;SDS011;7516;43.570;1.448;2023-01-29T12:11:35;10.37;;;7.17;;
14847;SDS011;7516;43.570;1.448;2023-01-29T12:14:04;6.53;;;5.70;;
14847;SDS011;7516;43.570;1.448;2023-01-29T12:16:52;6.10;;;4.77;;
14847;SDS011;7516;43.570;1.448;2023-01-29T12:19:24;6.50;;;5.70;;
14847;SDS011;7516;43.570;1.448;2023-01-29T12:21:59;6.20;;;4.80;;
14847;SDS011;7516;43.570;1.448;2023-01-29T12:24:32;6.27;;;5.07;;
14847;SDS011;7516;43.570;1.448;2023-01-29T12:27:05;7.00;;;5.33;;
14847;SDS011;7516;43.570;1.448;2023-01-29T12:29:41;6.90;;;5.13;;
14847;SDS011;7516;43.570;1.448;2023-01-29T12:32:19;7.97;;;5.33;;
14847;SDS011;7516;43.570;1.448;2023-01-29T12:34:56;6.30;;;4.70;;
14847;SDS011;7516;43.570;1.448;2023-01-29T12:37:34;8.07;;;6.00;;
14847;SDS011;7516;43.570;1.448;2023-01-29T12:40:10;7.73;;;5.43;;
14847;SDS011;7516;43.570;1.448;2023-01-29T12:42:39;8.47;;;6.47;;
14847;SDS011;7516;43.570;1.448;2023-01-29T12:45:14;5.03;;;4.33;;
14847;SDS011;7516;43.570;1.448;2023-01-29T12:47:44;6.40;;;4.80;;
14847;SDS011;7516;43.570;1.448;2023-01-29T12:50:16;5.60;;;4.37;;
14847;SDS011;7516;43.570;1.448;2023-01-29T12:52:47;5.47;;;4.47;;
14847;SDS011;7516;43.570;1.448;2023-01-29T12:55:19;6.90;;;5.37;;
14847;SDS011;7516;43.570;1.448;2023-01-29T12:57:52;5.43;;;4.80;;
14847;SDS011;7516;43.570;1.448;2023-01-29T13:00:24;6.37;;;4.97;;
14847;SDS011;7516;43.570;1.448;2023-01-29T13:02:55;5.07;;;4.30;;
14847;SDS011;7516;43.570;1.448;2023-01-29T13:05:29;5.70;;;4.83;;
14847;SDS011;7516;43.570;1.448;2023-01-29T13:08:02;6.53;;;4.87;;
14847;SDS011;7516;43.570;1.448;2023-01-29T13:10:34;5.60;;;4.37;;
14847;SDS011;7516;43.570;1.448;2023-01-29T13:13:10;5.30;;;4.50;;
14847;SDS011;7516;43.570;1.448;2023-01-29T13:15:42;5.43;;;4.53;;
14847;SDS011;7516;43.570;1.448;2023-01-29T13:18:19;4.60;;;4.00;;
14847;SDS011;7516;43.570;1.448;2023-01-29T13:20:58;5.17;;;4.20;;
14847;SDS011;7516;43.570;1.448;2023-01-29T13:23:27;5.77;;;4.00;;
14847;SDS011;7516;43.570;1.448;2023-01-29T13:25:59;6.00;;;5.40;;
14847;SDS011;7516;43.570;1.448;2023-01-29T13:28:27;5.87;;;5.10;;
14847;SDS011;7516;43.570;1.448;2023-01-29T13:31:10;7.63;;;5.47;;
14847;SDS011;7516;43.570;1.448;2023-01-29T13:33:50;8.07;;;5.70;;
14847;SDS011;7516;43.570;1.448;2023-01-29T13:36:21;8.47;;;6.40;;
14847;SDS011;7516;43.570;1.448;2023-01-29T13:38:54;8.70;;;6.87;;
14847;SDS011;7516;43.570;1.448;2023-01-29T13:41:30;10.40;;;7.50;;
14847;SDS011;7516;43.570;1.448;2023-01-29T13:44:00;7.30;;;5.87;;
14847;SDS011;7516;43.570;1.448;2023-01-29T13:46:29;9.90;;;7.43;;
14847;SDS011;7516;43.570;1.448;2023-01-29T13:48:58;7.47;;;6.10;;
14847;SDS011;7516;43.570;1.448;2023-01-29T13:51:30;7.67;;;5.70;;
14847;SDS011;7516;43.570;1.448;2023-01-29T13:54:02;7.03;;;5.60;;
14847;SDS011;7516;43.570;1.448;2023-01-29T13:56:44;7.22;;;6.03;;
14847;SDS011;7516;43.570;1.448;2023-01-29T13:59:23;7.93;;;5.00;;
14847;SDS011;7516;43.570;1.448;2023-01-29T14:02:19;7.93;;;5.50;;
14847;SDS011;7516;43.570;1.448;2023-01-29T14:04:54;6.97;;;5.27;;
14847;SDS011;7516;43.570;1.448;2023-01-29T14:08:00;6.03;;;4.67;;
14847;SDS011;7516;43.570;1.448;2023-01-29T14:10:29;5.53;;;4.60;;
14847;SDS011;7516;43.570;1.448;2023-01-29T14:18:55;5.87;;;4.67;;
14847;SDS011;7516;43.570;1.448;2023-01-29T14:21:26;5.33;;;4.30;;
14847;SDS011;7516;43.570;1.448;2023-01-29T14:23:56;6.00;;;4.40;;
14847;SDS011;7516;43.570;1.448;2023-01-29T14:26:33;6.03;;;4.77;;
14847;SDS011;7516;43.570;1.448;2023-01-29T14:29:15;7.30;;;4.77;;
14847;SDS011;7516;43.570;1.448;2023-01-29T14:31:46;7.07;;;4.87;;
14847;SDS011;7516;43.570;1.448;2023-01-29T14:34:21;6.10;;;5.43;;
14847;SDS011;7516;43.570;1.448;2023-01-29T14:36:53;7.27;;;5.67;;
14847;SDS011;7516;43.570;1.448;2023-01-29T14:39:31;7.00;;;5.63;;
14847;SDS011;7516;43.570;1.448;2023-01-29T14:42:02;7.00;;;5.30;;
14847;SDS011;7516;43.570;1.448;2023-01-29T14:44:52;8.20;;;5.80;;
14847;SDS011;7516;43.570;1.448;2023-01-29T14:50:41;8.87;;;5.87;;
14847;SDS011;7516;43.570;1.448;2023-01-29T14:53:13;6.03;;;4.50;;
14847;SDS011;7516;43.570;1.448;2023-01-29T14:55:49;4.87;;;3.67;;
14847;SDS011;7516;43.570;1.448;2023-01-29T14:58:22;4.43;;;3.97;;
14847;SDS011;7516;43.570;1.448;2023-01-29T15:00:59;5.33;;;4.17;;
14847;SDS011;7516;43.570;1.448;2023-01-29T15:03:34;6.67;;;5.63;;
14847;SDS011;7516;43.570;1.448;2023-01-29T15:06:13;5.83;;;4.50;;
14847;SDS011;7516;43.570;1.448;2023-01-29T15:08:44;4.97;;;3.93;;
14847;SDS011;7516;43.570;1.448;2023-01-29T15:11:19;9.07;;;6.90;;
14847;SDS011;7516;43.570;1.448;2023-01-29T15:14:05;9.20;;;6.10;;
14847;SDS011;7516;43.570;1.448;2023-01-29T15:16:47;11.23;;;6.53;;
14847;SDS011;7516;43.570;1.448;2023-01-29T15:19:23;6.17;;;4.87;;
14847;SDS011;7516;43.570;1.448;2023-01-29T15:22:08;10.47;;;5.67;;
14847;SDS011;7516;43.570;1.448;2023-01-29T15:24:38;6.47;;;4.87;;
14847;SDS011;7516;43.570;1.448;2023-01-29T15:27:08;5.97;;;4.23;;
14847;SDS011;7516;43.570;1.448;2023-01-29T15:29:39;5.13;;;4.00;;
14847;SDS011;7516;43.570;1.448;2023-01-29T15:32:11;6.93;;;4.80;;
14847;SDS011;7516;43.570;1.448;2023-01-29T15:34:57;6.37;;;4.53;;
14847;SDS011;7516;43.570;1.448;2023-01-29T15:37:31;6.27;;;5.00;;
14847;SDS011;7516;43.570;1.448;2023-01-29T15:40:00;6.53;;;5.23;;
14847;SDS011;7516;43.570;1.448;2023-01-29T15:42:40;6.80;;;4.93;;
14847;SDS011;7516;43.570;1.448;2023-01-29T15:45:20;6.97;;;4.70;;
14847;SDS011;7516;43.570;1.448;2023-01-29T15:47:49;7.27;;;5.27;;
14847;SDS011;7516;43.570;1.448;2023-01-29T15:50:19;7.60;;;4.40;;
14847;SDS011;7516;43.570;1.448;2023-01-29T15:52:48;6.67;;;4.47;;
14847;SDS011;7516;43.570;1.448;2023-01-29T15:55:19;5.87;;;4.70;;